createdAt,value
2023-04-13T05:05:13.685Z,8.20
2023-04-13T05:10:17.130Z,8.10
2023-04-13T05:15:22.134Z,8.10
2023-04-13T05:20:28.088Z,8.10
2023-04-13T05:25:32.244Z,8.10
2023-04-13T05:30:37.451Z,8.10
2023-04-13T05:35:42.435Z,8.00
2023-04-13T05:40:47.220Z,7.90
2023-04-13T05:45:51.497Z,7.90
2023-04-13T05:50:59.236Z,7.80
2023-04-13T05:56:03.367Z,7.90
2023-04-13T06:01:10.983Z,7.90
2023-04-13T06:06:17.418Z,8.00
2023-04-13T06:11:21.717Z,8.10
2023-04-13T06:16:25.549Z,8.10
2023-04-13T06:21:30.274Z,8.20
2023-04-13T06:26:34.832Z,8.20
2023-04-13T06:31:38.658Z,8.20
2023-04-13T06:36:47.136Z,8.30
2023-04-13T06:41:51.380Z,8.50
2023-04-13T06:46:56.769Z,8.50
2023-04-13T06:52:03.074Z,8.80
2023-04-13T06:57:06.637Z,9.00
2023-04-13T07:02:10.730Z,9.20
2023-04-13T07:07:15.696Z,9.30
2023-04-13T07:12:19.332Z,9.50
2023-04-13T07:17:23.124Z,9.60
2023-04-13T07:22:31.212Z,9.70
2023-04-13T07:27:35.086Z,9.90
2023-04-13T07:32:38.546Z,10.10
2023-04-13T07:37:43.382Z,10.20
2023-04-13T07:42:50.277Z,10.40
2023-04-13T07:47:54.864Z,10.60
2023-04-13T07:52:59.888Z,10.90
2023-04-13T07:58:03.760Z,11.10
2023-04-13T08:03:07.614Z,11.30
2023-04-13T08:08:13.093Z,11.50
2023-04-13T08:13:17.748Z,11.70
2023-04-13T08:18:21.270Z,11.90
2023-04-13T08:23:27.582Z,12.00
2023-04-13T08:28:33.449Z,12.10
2023-04-13T08:33:36.997Z,12.10
2023-04-13T08:38:41.794Z,12.20
2023-04-13T08:43:47.968Z,12.40
2023-04-13T08:48:55.001Z,12.70
2023-04-13T08:54:00.345Z,13.10
2023-04-13T08:59:05.302Z,13.60
2023-04-13T09:04:09.940Z,14.20
2023-04-13T09:09:17.020Z,14.50
2023-04-13T09:14:22.024Z,14.60
2023-04-13T09:19:30.413Z,14.60
2023-04-13T09:24:41.527Z,14.40
2023-04-13T09:29:49.550Z,14.20
2023-04-13T09:35:00.237Z,14.10
2023-04-13T09:40:11.693Z,13.90
2023-04-13T09:45:15.204Z,13.80
2023-04-13T09:50:19.384Z,13.90
2023-04-13T09:55:24.263Z,14.10
2023-04-13T10:00:27.771Z,14.50
2023-04-13T10:05:34.156Z,14.90
2023-04-13T10:10:40.546Z,14.90
2023-04-13T10:15:58.674Z,14.90
2023-04-13T10:21:03.954Z,14.70
2023-04-13T10:26:09.648Z,14.80
2023-04-13T10:31:13.149Z,13.60
2023-04-13T10:36:16.734Z,14.40
2023-04-13T10:41:28.761Z,14.50
2023-04-13T10:46:34.182Z,14.50
2023-04-13T10:51:41.235Z,14.50
2023-04-13T10:56:56.342Z,14.10
2023-04-13T11:02:00.829Z,14.20
2023-04-13T11:07:04.345Z,14.50
2023-04-13T11:12:09.434Z,14.40
2023-04-13T11:17:15.388Z,14.40
2023-04-13T11:22:19.507Z,14.50
2023-04-13T11:27:24.710Z,14.60
2023-04-13T11:32:28.317Z,14.80
2023-04-13T11:37:36.380Z,15.10
2023-04-13T11:42:42.067Z,15.20
2023-04-13T11:47:46.278Z,15.30
2023-04-13T11:52:50.810Z,15.70
2023-04-13T11:57:56.608Z,15.90
2023-04-13T12:03:02.270Z,15.90
2023-04-13T12:08:07.404Z,16.00
2023-04-13T12:18:23.772Z,15.30
2023-04-13T12:23:31.654Z,15.20
2023-04-13T12:28:37.901Z,15.10
2023-04-13T12:33:41.370Z,14.90
2023-04-13T12:38:45.021Z,15.00
2023-04-13T12:43:49.741Z,15.40
2023-04-13T12:48:54.089Z,15.40
2023-04-13T12:53:57.553Z,15.10
2023-04-13T12:59:02.803Z,14.30
2023-04-13T13:04:06.633Z,13.30
2023-04-13T13:09:10.399Z,12.50
2023-04-13T13:14:15.107Z,11.90
2023-04-13T13:19:18.450Z,11.40
2023-04-13T13:24:21.784Z,11.10
2023-04-13T13:29:28.045Z,10.90
2023-04-13T13:34:31.617Z,10.90
2023-04-13T13:39:35.404Z,11.10
2023-04-13T13:44:40.086Z,11.50
2023-04-13T13:49:43.428Z,12.60
2023-04-13T13:54:47.757Z,13.90
2023-04-13T13:59:52.462Z,15.00
2023-04-13T14:04:55.842Z,16.00
2023-04-13T14:09:59.200Z,16.80
2023-04-13T14:15:04.016Z,17.40
2023-04-13T14:20:09.921Z,17.70
2023-04-13T14:25:13.232Z,17.10
2023-04-13T14:30:18.558Z,17.00
2023-04-13T14:35:22.073Z,16.60
2023-04-13T14:40:25.516Z,15.90
2023-04-13T14:45:30.332Z,15.50
2023-04-13T14:50:34.052Z,15.10
2023-04-13T14:55:37.623Z,15.00
2023-04-13T15:00:42.477Z,14.80
2023-04-13T15:05:47.477Z,15.00
2023-04-13T15:10:51.023Z,15.00
2023-04-13T15:15:56.780Z,14.80
2023-04-13T15:21:02.665Z,14.70
2023-04-13T15:26:06.152Z,14.90
2023-04-13T15:31:10.944Z,15.20
2023-04-13T15:36:15.896Z,15.10
2023-04-13T15:41:20.042Z,14.60
2023-04-13T15:46:24.810Z,14.10
2023-04-13T15:51:29.249Z,13.50
2023-04-13T15:56:32.998Z,12.80
2023-04-13T16:01:46.827Z,12.30
2023-04-13T16:07:04.982Z,12.30
2023-04-13T16:12:13.304Z,12.60
2023-04-13T16:17:18.630Z,12.90
2023-04-13T16:22:22.508Z,13.10
2023-04-13T16:27:26.008Z,13.10
2023-04-13T16:32:31.055Z,13.10
2023-04-13T16:37:34.446Z,13.10
2023-04-13T16:42:38.013Z,13.00
2023-04-13T16:47:42.751Z,13.00
2023-04-13T16:52:46.105Z,12.90
2023-04-13T16:57:49.671Z,12.90
2023-04-13T17:02:54.563Z,13.10
2023-04-13T17:07:58.053Z,13.20
2023-04-13T17:13:01.621Z,13.30
2023-04-13T17:18:06.763Z,13.20
2023-04-13T17:23:10.155Z,13.10
2023-04-13T17:28:13.500Z,12.90
2023-04-13T17:33:18.747Z,12.90
2023-04-13T17:38:22.107Z,12.90
2023-04-13T17:43:25.585Z,12.70
2023-04-13T17:48:30.360Z,12.40
2023-04-13T17:53:33.703Z,12.20
2023-04-13T17:58:37.024Z,12.10
2023-04-13T18:03:41.805Z,12.10
2023-04-13T18:08:45.327Z,12.20
2023-04-13T18:13:48.688Z,12.20
2023-04-13T18:18:53.383Z,10.40
2023-04-13T18:23:57.034Z,12.20
2023-04-13T18:29:00.660Z,12.20
2023-04-13T18:34:07.132Z,12.10
2023-04-13T18:39:10.448Z,12.10
2023-04-13T18:44:13.846Z,12.00
2023-04-13T18:49:18.729Z,11.90
2023-04-13T18:54:22.155Z,11.80
2023-04-13T18:59:25.526Z,11.70
2023-04-13T19:04:30.456Z,11.90
2023-04-13T19:09:33.856Z,11.60
2023-04-13T19:14:37.173Z,11.50
2023-04-13T19:19:41.834Z,11.40
2023-04-13T19:24:45.175Z,11.30
2023-04-13T19:29:48.525Z,11.20
2023-04-13T19:34:53.217Z,11.30
2023-04-13T19:39:56.675Z,11.20
2023-04-13T19:45:00.005Z,11.20
2023-04-13T19:50:04.901Z,11.20
2023-04-13T19:55:09.327Z,11.20
2023-04-13T20:00:19.159Z,11.20
2023-04-13T20:05:24.825Z,11.20
2023-04-13T20:10:28.380Z,11.20
2023-04-13T20:15:33.722Z,10.80
2023-04-13T20:20:38.614Z,11.00
2023-04-13T20:25:42.000Z,10.90
2023-04-13T20:30:45.359Z,10.90
2023-04-13T20:35:50.151Z,10.90
2023-04-13T20:40:53.770Z,10.70
2023-04-13T20:45:57.602Z,10.70
2023-04-13T20:51:02.325Z,10.60
2023-04-13T20:56:06.464Z,10.50
2023-04-13T21:01:10.101Z,10.40
2023-04-13T21:06:14.923Z,10.30
2023-04-13T21:11:18.292Z,9.30
2023-04-13T21:16:21.699Z,10.20
2023-04-13T21:21:27.873Z,10.30
2023-04-13T21:26:31.175Z,10.20
2023-04-13T21:31:34.560Z,10.10
2023-04-13T21:41:45.524Z,8.60
2023-04-13T21:46:48.865Z,10.00
2023-04-13T21:51:53.702Z,10.00
2023-04-13T21:56:57.046Z,10.10
2023-04-13T22:02:00.511Z,9.10
2023-04-13T22:07:05.607Z,10.00
2023-04-13T22:12:10.740Z,9.80
2023-04-13T22:17:14.624Z,9.70
2023-04-13T22:22:19.330Z,9.70
2023-04-13T22:27:22.690Z,9.60
